DFOO/BOY METAR and TAF weather

Enter ICAO airport designator
Station Type Date Time Source
DFOO METAR 2019/02/20 23:00 UTC NOAA

DFOO 202300Z 31006KT 8000 NSC 28/01 Q1014


Station Type Date Time Source
DFOO Decoded METAR 2019/02/20 23:00 UTC NOAA

Bobo-Dioulasso, Burkina Faso (DFOO) 11-10N 004-19W 460M
Feb 20, 2019 - 06:00 PM EST / 2019.02.20 2300 UTC
Wind: from the NW (310 degrees) at 7 MPH (6 KT):0
Visibility: 4 mile(s):0
Temperature: 82 F (28 C)
Dew Point: 33 F (1 C)
Relative Humidity: 17%
Pressure (altimeter): 29.94 in. Hg (1014 hPa)
ob: DFOO 202300Z 31006KT 8000 NSC 28/01 Q1014
cycle: 23

Station Type Date Time Source
DFOO TAF 2019/02/20 18:21 UTC NOAA

TAF DFOO 201700Z 2018/2118 VRB08KT 8000 NSC


Example: see airport list